KBIV

West Michigan Regional Airport

Holland, Michigan, USA
METAR KBIV 210353Z AUTO 18005KT 7SM CLR 01/M01 A3000 RMK AO2 SLP164 T00111011
Observed Flight Rules
Jan-21 @ 03:53 UTC (45 minutes ago) Visual Flight Rules
Wind Visibility Clouds
180° at 5 knots 7 miles
  • Clear skies
Temperatures Readings
Current 1°C / 34°F
Dewpoint -1°C / 30°F
Humidity 87%
Altimeter 30" Hg
Pressure 1016.4 hPa
Elevation 208
METAR KBIV 210353Z AUTO 18005KT 7SM CLR 01/M01 A3000 RMK AO2 SLP164 T00111011
Observed Flight Rules
Jan-21 @ 03:53 UTC
(45 minutes ago)
VFR
Wind Visibility
180° at 5 knots 7 miles
Clouds
  • Clear skies
Temperature Dewpoint
1°C / 34°F -1°C / 30°F
Humidity Altimeter Pressure
87% 30" Hg 1016.4 hPa